sensor_id;sensor_type;location;lat;lon;timestamp;P1;durP1;ratioP1;P2;durP2;ratioP2
45103;SDS011;30865;51.288;4.572;2023-02-01T00:01:59;3.15;;;2.20;;
45103;SDS011;30865;51.288;4.572;2023-02-01T00:04:25;4.57;;;2.28;;
45103;SDS011;30865;51.288;4.572;2023-02-01T00:06:51;3.97;;;2.35;;
45103;SDS011;30865;51.288;4.572;2023-02-01T00:09:16;5.07;;;2.55;;
45103;SDS011;30865;51.288;4.572;2023-02-01T00:11:42;5.40;;;2.03;;
45103;SDS011;30865;51.288;4.572;2023-02-01T00:14:07;4.45;;;2.17;;
45103;SDS011;30865;51.288;4.572;2023-02-01T00:16:33;4.65;;;2.58;;
45103;SDS011;30865;51.288;4.572;2023-02-01T00:19:00;2.60;;;1.42;;
45103;SDS011;30865;51.288;4.572;2023-02-01T00:21:27;4.18;;;2.40;;
45103;SDS011;30865;51.288;4.572;2023-02-01T00:23:53;3.38;;;1.80;;
45103;SDS011;30865;51.288;4.572;2023-02-01T00:26:19;4.10;;;2.35;;
45103;SDS011;30865;51.288;4.572;2023-02-01T00:29:07;4.65;;;2.72;;
45103;SDS011;30865;51.288;4.572;2023-02-01T00:31:35;2.90;;;2.20;;
45103;SDS011;30865;51.288;4.572;2023-02-01T00:34:01;3.08;;;2.00;;
45103;SDS011;30865;51.288;4.572;2023-02-01T00:36:27;3.10;;;1.83;;
45103;SDS011;30865;51.288;4.572;2023-02-01T00:38:54;3.95;;;2.30;;
45103;SDS011;30865;51.288;4.572;2023-02-01T00:41:20;3.47;;;1.85;;
45103;SDS011;30865;51.288;4.572;2023-02-01T00:43:46;3.20;;;1.73;;
45103;SDS011;30865;51.288;4.572;2023-02-01T00:46:12;3.30;;;2.35;;
45103;SDS011;30865;51.288;4.572;2023-02-01T00:48:39;3.85;;;1.70;;
45103;SDS011;30865;51.288;4.572;2023-02-01T00:51:06;4.55;;;2.58;;
45103;SDS011;30865;51.288;4.572;2023-02-01T00:53:32;4.28;;;2.15;;
45103;SDS011;30865;51.288;4.572;2023-02-01T00:55:59;2.67;;;1.63;;
45103;SDS011;30865;51.288;4.572;2023-02-01T00:58:24;2.25;;;1.58;;
45103;SDS011;30865;51.288;4.572;2023-02-01T01:01:00;3.88;;;1.95;;
45103;SDS011;30865;51.288;4.572;2023-02-01T01:03:35;2.38;;;1.80;;
45103;SDS011;30865;51.288;4.572;2023-02-01T01:06:04;2.95;;;2.20;;
45103;SDS011;30865;51.288;4.572;2023-02-01T01:08:32;2.85;;;1.83;;
45103;SDS011;30865;51.288;4.572;2023-02-01T01:10:58;2.92;;;1.80;;
45103;SDS011;30865;51.288;4.572;2023-02-01T01:13:28;2.45;;;1.85;;
45103;SDS011;30865;51.288;4.572;2023-02-01T01:15:54;2.95;;;1.83;;
45103;SDS011;30865;51.288;4.572;2023-02-01T01:18:19;3.25;;;1.77;;
45103;SDS011;30865;51.288;4.572;2023-02-01T01:20:44;2.33;;;1.63;;
45103;SDS011;30865;51.288;4.572;2023-02-01T01:23:10;4.40;;;1.63;;
45103;SDS011;30865;51.288;4.572;2023-02-01T01:25:39;3.30;;;1.67;;
45103;SDS011;30865;51.288;4.572;2023-02-01T01:28:05;2.15;;;1.40;;
45103;SDS011;30865;51.288;4.572;2023-02-01T01:30:31;2.83;;;1.58;;
45103;SDS011;30865;51.288;4.572;2023-02-01T01:32:59;2.45;;;1.23;;
45103;SDS011;30865;51.288;4.572;2023-02-01T01:35:24;2.65;;;1.35;;
45103;SDS011;30865;51.288;4.572;2023-02-01T01:37:50;3.25;;;1.67;;
45103;SDS011;30865;51.288;4.572;2023-02-01T01:40:15;2.85;;;1.40;;
45103;SDS011;30865;51.288;4.572;2023-02-01T01:42:41;1.67;;;1.30;;
45103;SDS011;30865;51.288;4.572;2023-02-01T01:47:47;1.88;;;1.48;;
45103;SDS011;30865;51.288;4.572;2023-02-01T01:50:16;1.60;;;1.30;;
45103;SDS011;30865;51.288;4.572;2023-02-01T01:52:46;1.53;;;1.10;;
45103;SDS011;30865;51.288;4.572;2023-02-01T01:55:14;2.03;;;1.27;;
45103;SDS011;30865;51.288;4.572;2023-02-01T01:57:44;3.13;;;1.48;;
45103;SDS011;30865;51.288;4.572;2023-02-01T02:00:15;2.42;;;1.50;;
45103;SDS011;30865;51.288;4.572;2023-02-01T02:02:44;1.95;;;1.52;;
45103;SDS011;30865;51.288;4.572;2023-02-01T02:05:12;1.98;;;1.45;;
45103;SDS011;30865;51.288;4.572;2023-02-01T02:07:40;2.65;;;1.40;;
45103;SDS011;30865;51.288;4.572;2023-02-01T02:10:10;1.38;;;1.13;;
45103;SDS011;30865;51.288;4.572;2023-02-01T02:12:38;1.38;;;1.20;;
45103;SDS011;30865;51.288;4.572;2023-02-01T02:15:06;1.42;;;1.30;;
45103;SDS011;30865;51.288;4.572;2023-02-01T02:20:45;2.80;;;1.60;;
45103;SDS011;30865;51.288;4.572;2023-02-01T02:26:30;2.35;;;1.30;;
45103;SDS011;30865;51.288;4.572;2023-02-01T02:29:23;1.50;;;1.27;;
45103;SDS011;30865;51.288;4.572;2023-02-01T02:35:08;1.98;;;1.25;;
45103;SDS011;30865;51.288;4.572;2023-02-01T02:43:22;2.30;;;1.73;;
45103;SDS011;30865;51.288;4.572;2023-02-01T02:46:26;2.15;;;1.42;;
45103;SDS011;30865;51.288;4.572;2023-02-01T02:52:29;2.00;;;1.27;;
45103;SDS011;30865;51.288;4.572;2023-02-01T02:55:16;1.60;;;1.42;;
45103;SDS011;30865;51.288;4.572;2023-02-01T02:57:42;2.95;;;1.65;;
45103;SDS011;30865;51.288;4.572;2023-02-01T03:00:29;2.80;;;2.20;;
45103;SDS011;30865;51.288;4.572;2023-02-01T03:03:16;2.38;;;1.58;;
45103;SDS011;30865;51.288;4.572;2023-02-01T03:06:00;2.53;;;1.60;;
45103;SDS011;30865;51.288;4.572;2023-02-01T03:08:26;3.05;;;1.73;;
45103;SDS011;30865;51.288;4.572;2023-02-01T03:10:55;2.63;;;1.75;;
45103;SDS011;30865;51.288;4.572;2023-02-01T03:18:55;2.10;;;1.77;;
45103;SDS011;30865;51.288;4.572;2023-02-01T03:21:29;1.50;;;1.33;;
45103;SDS011;30865;51.288;4.572;2023-02-01T03:24:07;1.98;;;0.93;;
45103;SDS011;30865;51.288;4.572;2023-02-01T03:26:47;2.83;;;2.10;;
45103;SDS011;30865;51.288;4.572;2023-02-01T03:29:24;1.92;;;1.63;;
45103;SDS011;30865;51.288;4.572;2023-02-01T03:31:55;1.98;;;1.40;;
45103;SDS011;30865;51.288;4.572;2023-02-01T03:34:21;2.17;;;1.42;;
45103;SDS011;30865;51.288;4.572;2023-02-01T03:36:57;3.75;;;1.65;;
45103;SDS011;30865;51.288;4.572;2023-02-01T03:39:34;4.40;;;1.98;;
45103;SDS011;30865;51.288;4.572;2023-02-01T03:42:06;2.67;;;2.00;;
45103;SDS011;30865;51.288;4.572;2023-02-01T03:44:38;2.97;;;1.85;;
45103;SDS011;30865;51.288;4.572;2023-02-01T03:47:21;3.83;;;1.45;;
45103;SDS011;30865;51.288;4.572;2023-02-01T03:49:50;2.78;;;1.63;;
45103;SDS011;30865;51.288;4.572;2023-02-01T03:52:24;2.83;;;1.92;;
45103;SDS011;30865;51.288;4.572;2023-02-01T03:54:53;2.88;;;1.83;;
45103;SDS011;30865;51.288;4.572;2023-02-01T03:57:27;2.13;;;1.80;;
45103;SDS011;30865;51.288;4.572;2023-02-01T04:00:05;2.17;;;1.98;;
45103;SDS011;30865;51.288;4.572;2023-02-01T04:02:43;2.22;;;1.85;;
45103;SDS011;30865;51.288;4.572;2023-02-01T04:05:08;2.67;;;1.88;;
45103;SDS011;30865;51.288;4.572;2023-02-01T04:07:34;2.50;;;1.80;;
45103;SDS011;30865;51.288;4.572;2023-02-01T04:09:59;3.20;;;1.90;;
45103;SDS011;30865;51.288;4.572;2023-02-01T04:12:25;3.20;;;2.20;;
45103;SDS011;30865;51.288;4.572;2023-02-01T04:14:50;1.88;;;1.50;;
45103;SDS011;30865;51.288;4.572;2023-02-01T04:17:16;3.03;;;1.98;;
45103;SDS011;30865;51.288;4.572;2023-02-01T04:19:41;2.50;;;1.67;;
45103;SDS011;30865;51.288;4.572;2023-02-01T04:22:07;1.65;;;1.55;;
45103;SDS011;30865;51.288;4.572;2023-02-01T04:24:32;1.92;;;1.70;;
45103;SDS011;30865;51.288;4.572;2023-02-01T04:26:58;1.75;;;1.58;;
45103;SDS011;30865;51.288;4.572;2023-02-01T04:29:23;2.50;;;1.58;;
45103;SDS011;30865;51.288;4.572;2023-02-01T04:31:49;4.18;;;2.40;;
45103;SDS011;30865;51.288;4.572;2023-02-01T04:34:14;2.53;;;2.00;;
45103;SDS011;30865;51.288;4.572;2023-02-01T04:36:40;2.63;;;2.22;;
45103;SDS011;30865;51.288;4.572;2023-02-01T04:39:05;2.50;;;1.95;;
45103;SDS011;30865;51.288;4.572;2023-02-01T04:41:31;3.22;;;1.85;;
45103;SDS011;30865;51.288;4.572;2023-02-01T04:43:56;3.13;;;2.13;;
45103;SDS011;30865;51.288;4.572;2023-02-01T04:46:22;2.28;;;1.67;;
45103;SDS011;30865;51.288;4.572;2023-02-01T04:48:47;5.38;;;1.70;;
45103;SDS011;30865;51.288;4.572;2023-02-01T04:51:13;2.25;;;2.03;;
45103;SDS011;30865;51.288;4.572;2023-02-01T04:53:40;2.50;;;1.63;;
45103;SDS011;30865;51.288;4.572;2023-02-01T04:56:05;2.75;;;1.92;;
45103;SDS011;30865;51.288;4.572;2023-02-01T04:58:32;3.40;;;2.00;;
45103;SDS011;30865;51.288;4.572;2023-02-01T05:00:57;2.58;;;1.42;;
45103;SDS011;30865;51.288;4.572;2023-02-01T05:03:23;2.45;;;1.65;;
45103;SDS011;30865;51.288;4.572;2023-02-01T05:05:48;2.47;;;1.95;;
45103;SDS011;30865;51.288;4.572;2023-02-01T05:08:14;3.47;;;2.25;;
45103;SDS011;30865;51.288;4.572;2023-02-01T05:10:40;3.13;;;2.05;;
45103;SDS011;30865;51.288;4.572;2023-02-01T05:13:07;1.90;;;1.70;;
45103;SDS011;30865;51.288;4.572;2023-02-01T05:15:51;4.13;;;2.28;;
45103;SDS011;30865;51.288;4.572;2023-02-01T05:18:17;4.40;;;2.25;;
45103;SDS011;30865;51.288;4.572;2023-02-01T05:20:42;3.00;;;1.95;;
45103;SDS011;30865;51.288;4.572;2023-02-01T05:23:08;2.42;;;1.77;;
45103;SDS011;30865;51.288;4.572;2023-02-01T05:25:33;2.70;;;1.80;;
45103;SDS011;30865;51.288;4.572;2023-02-01T05:27:59;4.05;;;1.80;;
45103;SDS011;30865;51.288;4.572;2023-02-01T05:30:24;1.52;;;1.40;;
45103;SDS011;30865;51.288;4.572;2023-02-01T05:32:50;2.00;;;1.67;;
45103;SDS011;30865;51.288;4.572;2023-02-01T05:35:17;3.85;;;2.00;;
45103;SDS011;30865;51.288;4.572;2023-02-01T05:37:43;2.92;;;1.67;;
45103;SDS011;30865;51.288;4.572;2023-02-01T05:40:09;2.75;;;1.88;;
45103;SDS011;30865;51.288;4.572;2023-02-01T05:42:35;2.78;;;1.48;;
45103;SDS011;30865;51.288;4.572;2023-02-01T05:45:00;2.45;;;2.03;;
45103;SDS011;30865;51.288;4.572;2023-02-01T05:47:26;2.80;;;1.67;;
45103;SDS011;30865;51.288;4.572;2023-02-01T05:49:51;2.47;;;1.70;;
45103;SDS011;30865;51.288;4.572;2023-02-01T05:52:17;1.38;;;1.27;;
45103;SDS011;30865;51.288;4.572;2023-02-01T05:54:44;2.42;;;1.63;;
45103;SDS011;30865;51.288;4.572;2023-02-01T05:57:13;2.28;;;1.80;;
45103;SDS011;30865;51.288;4.572;2023-02-01T05:59:39;2.55;;;1.30;;
45103;SDS011;30865;51.288;4.572;2023-02-01T06:02:09;2.15;;;1.27;;
45103;SDS011;30865;51.288;4.572;2023-02-01T06:04:35;2.25;;;1.50;;
45103;SDS011;30865;51.288;4.572;2023-02-01T06:07:01;1.83;;;1.65;;
45103;SDS011;30865;51.288;4.572;2023-02-01T06:09:27;1.25;;;1.15;;
45103;SDS011;30865;51.288;4.572;2023-02-01T06:11:53;2.85;;;1.35;;
45103;SDS011;30865;51.288;4.572;2023-02-01T06:14:18;3.65;;;1.70;;
45103;SDS011;30865;51.288;4.572;2023-02-01T06:16:44;3.95;;;2.25;;
45103;SDS011;30865;51.288;4.572;2023-02-01T06:19:11;2.05;;;1.25;;
45103;SDS011;30865;51.288;4.572;2023-02-01T06:21:37;3.15;;;1.58;;
45103;SDS011;30865;51.288;4.572;2023-02-01T06:24:02;2.65;;;1.90;;
45103;SDS011;30865;51.288;4.572;2023-02-01T06:26:28;7.22;;;1.73;;
45103;SDS011;30865;51.288;4.572;2023-02-01T06:28:54;3.55;;;1.50;;
45103;SDS011;30865;51.288;4.572;2023-02-01T06:31:20;2.55;;;1.60;;
45103;SDS011;30865;51.288;4.572;2023-02-01T06:33:47;3.65;;;1.48;;
45103;SDS011;30865;51.288;4.572;2023-02-01T06:36:13;2.05;;;1.40;;
45103;SDS011;30865;51.288;4.572;2023-02-01T06:38:40;2.85;;;1.48;;
45103;SDS011;30865;51.288;4.572;2023-02-01T06:41:06;3.88;;;1.50;;
45103;SDS011;30865;51.288;4.572;2023-02-01T06:43:32;2.25;;;1.35;;
45103;SDS011;30865;51.288;4.572;2023-02-01T06:46:02;2.38;;;1.30;;
45103;SDS011;30865;51.288;4.572;2023-02-01T06:48:29;4.88;;;1.63;;
45103;SDS011;30865;51.288;4.572;2023-02-01T06:50:54;1.67;;;1.30;;
45103;SDS011;30865;51.288;4.572;2023-02-01T06:53:20;2.03;;;1.30;;
45103;SDS011;30865;51.288;4.572;2023-02-01T06:55:56;6.13;;;1.80;;
45103;SDS011;30865;51.288;4.572;2023-02-01T06:58:23;2.88;;;1.50;;
45103;SDS011;30865;51.288;4.572;2023-02-01T07:00:48;2.80;;;1.88;;
45103;SDS011;30865;51.288;4.572;2023-02-01T07:03:15;3.15;;;1.83;;
45103;SDS011;30865;51.288;4.572;2023-02-01T07:05:41;4.13;;;1.85;;
45103;SDS011;30865;51.288;4.572;2023-02-01T07:08:07;5.82;;;1.75;;
45103;SDS011;30865;51.288;4.572;2023-02-01T07:10:33;1.80;;;1.70;;
45103;SDS011;30865;51.288;4.572;2023-02-01T07:12:59;5.13;;;2.25;;
45103;SDS011;30865;51.288;4.572;2023-02-01T07:15:26;2.88;;;1.98;;
45103;SDS011;30865;51.288;4.572;2023-02-01T07:17:53;4.82;;;1.75;;
45103;SDS011;30865;51.288;4.572;2023-02-01T07:20:19;1.10;;;0.75;;
45103;SDS011;30865;51.288;4.572;2023-02-01T07:22:45;3.45;;;1.63;;
45103;SDS011;30865;51.288;4.572;2023-02-01T07:25:10;6.95;;;2.53;;
45103;SDS011;30865;51.288;4.572;2023-02-01T07:27:36;2.75;;;1.70;;
45103;SDS011;30865;51.288;4.572;2023-02-01T07:30:02;4.22;;;1.75;;
45103;SDS011;30865;51.288;4.572;2023-02-01T07:32:29;2.55;;;1.95;;
45103;SDS011;30865;51.288;4.572;2023-02-01T07:34:55;3.55;;;1.63;;
45103;SDS011;30865;51.288;4.572;2023-02-01T07:37:20;5.80;;;2.28;;
45103;SDS011;30865;51.288;4.572;2023-02-01T07:39:46;4.15;;;2.05;;
45103;SDS011;30865;51.288;4.572;2023-02-01T07:42:11;3.55;;;2.03;;
45103;SDS011;30865;51.288;4.572;2023-02-01T07:44:37;5.80;;;2.05;;
45103;SDS011;30865;51.288;4.572;2023-02-01T07:47:02;4.00;;;2.13;;
45103;SDS011;30865;51.288;4.572;2023-02-01T07:49:28;4.38;;;2.08;;
45103;SDS011;30865;51.288;4.572;2023-02-01T07:51:53;7.30;;;2.63;;
45103;SDS011;30865;51.288;4.572;2023-02-01T07:54:19;3.00;;;2.22;;
45103;SDS011;30865;51.288;4.572;2023-02-01T07:56:44;3.42;;;2.28;;
45103;SDS011;30865;51.288;4.572;2023-02-01T07:59:10;4.95;;;2.42;;
45103;SDS011;30865;51.288;4.572;2023-02-01T08:01:36;4.03;;;1.73;;
45103;SDS011;30865;51.288;4.572;2023-02-01T08:04:02;4.15;;;2.08;;
45103;SDS011;30865;51.288;4.572;2023-02-01T08:06:29;4.20;;;1.85;;
45103;SDS011;30865;51.288;4.572;2023-02-01T08:08:56;5.75;;;1.83;;
45103;SDS011;30865;51.288;4.572;2023-02-01T08:11:23;3.10;;;2.00;;
45103;SDS011;30865;51.288;4.572;2023-02-01T08:13:50;4.15;;;1.73;;
45103;SDS011;30865;51.288;4.572;2023-02-01T08:16:18;2.90;;;1.67;;
45103;SDS011;30865;51.288;4.572;2023-02-01T08:18:44;3.45;;;2.20;;
45103;SDS011;30865;51.288;4.572;2023-02-01T08:23:50;3.85;;;2.80;;
45103;SDS011;30865;51.288;4.572;2023-02-01T08:26:25;6.18;;;2.03;;
45103;SDS011;30865;51.288;4.572;2023-02-01T08:28:52;3.50;;;2.15;;
45103;SDS011;30865;51.288;4.572;2023-02-01T08:31:20;3.90;;;2.35;;
45103;SDS011;30865;51.288;4.572;2023-02-01T08:33:48;4.35;;;2.15;;
45103;SDS011;30865;51.288;4.572;2023-02-01T08:36:19;5.40;;;2.03;;
45103;SDS011;30865;51.288;4.572;2023-02-01T08:38:45;7.45;;;2.17;;
45103;SDS011;30865;51.288;4.572;2023-02-01T08:41:12;3.05;;;1.60;;
45103;SDS011;30865;51.288;4.572;2023-02-01T08:43:40;3.88;;;1.98;;
45103;SDS011;30865;51.288;4.572;2023-02-01T08:46:06;3.20;;;2.05;;
45103;SDS011;30865;51.288;4.572;2023-02-01T08:48:33;8.38;;;2.20;;
45103;SDS011;30865;51.288;4.572;2023-02-01T08:51:03;4.20;;;2.20;;
45103;SDS011;30865;51.288;4.572;2023-02-01T08:53:33;5.18;;;1.67;;
45103;SDS011;30865;51.288;4.572;2023-02-01T08:56:00;1.98;;;1.02;;
45103;SDS011;30865;51.288;4.572;2023-02-01T08:58:26;2.72;;;1.70;;
45103;SDS011;30865;51.288;4.572;2023-02-01T09:00:51;3.80;;;1.63;;
45103;SDS011;30865;51.288;4.572;2023-02-01T09:03:17;7.28;;;2.80;;
45103;SDS011;30865;51.288;4.572;2023-02-01T09:05:43;2.65;;;1.58;;
45103;SDS011;30865;51.288;4.572;2023-02-01T09:08:09;5.93;;;2.20;;
45103;SDS011;30865;51.288;4.572;2023-02-01T09:10:38;5.15;;;2.20;;
45103;SDS011;30865;51.288;4.572;2023-02-01T09:13:03;2.97;;;1.45;;
45103;SDS011;30865;51.288;4.572;2023-02-01T09:15:29;2.63;;;1.55;;
45103;SDS011;30865;51.288;4.572;2023-02-01T09:17:57;3.70;;;1.58;;
45103;SDS011;30865;51.288;4.572;2023-02-01T09:20:22;2.78;;;1.85;;
45103;SDS011;30865;51.288;4.572;2023-02-01T09:22:49;6.90;;;2.35;;
45103;SDS011;30865;51.288;4.572;2023-02-01T09:25:16;3.15;;;2.17;;
45103;SDS011;30865;51.288;4.572;2023-02-01T09:27:42;5.18;;;2.88;;
45103;SDS011;30865;51.288;4.572;2023-02-01T09:30:07;4.35;;;1.88;;
45103;SDS011;30865;51.288;4.572;2023-02-01T09:32:33;6.05;;;1.60;;
45103;SDS011;30865;51.288;4.572;2023-02-01T09:34:59;5.00;;;2.08;;
45103;SDS011;30865;51.288;4.572;2023-02-01T09:37:25;3.85;;;1.92;;
45103;SDS011;30865;51.288;4.572;2023-02-01T09:39:51;6.18;;;1.90;;
45103;SDS011;30865;51.288;4.572;2023-02-01T09:45:17;4.88;;;1.75;;
45103;SDS011;30865;51.288;4.572;2023-02-01T09:47:49;3.33;;;1.85;;
45103;SDS011;30865;51.288;4.572;2023-02-01T09:56:06;13.75;;;3.38;;
45103;SDS011;30865;51.288;4.572;2023-02-01T09:58:45;7.20;;;2.17;;
45103;SDS011;30865;51.288;4.572;2023-02-01T10:01:18;7.35;;;2.45;;
45103;SDS011;30865;51.288;4.572;2023-02-01T10:19:21;6.70;;;1.92;;
45103;SDS011;30865;51.288;4.572;2023-02-01T10:21:54;4.85;;;1.98;;
45103;SDS011;30865;51.288;4.572;2023-02-01T10:27:35;7.60;;;1.98;;
45103;SDS011;30865;51.288;4.572;2023-02-01T10:30:14;8.45;;;1.73;;
45103;SDS011;30865;51.288;4.572;2023-02-01T10:32:47;7.47;;;2.25;;
45103;SDS011;30865;51.288;4.572;2023-02-01T10:35:18;8.80;;;1.80;;
45103;SDS011;30865;51.288;4.572;2023-02-01T10:37:48;5.00;;;1.40;;
45103;SDS011;30865;51.288;4.572;2023-02-01T10:40:16;10.10;;;1.70;;
45103;SDS011;30865;51.288;4.572;2023-02-01T10:42:43;7.90;;;1.95;;
45103;SDS011;30865;51.288;4.572;2023-02-01T10:45:11;8.07;;;1.70;;
45103;SDS011;30865;51.288;4.572;2023-02-01T10:47:40;12.05;;;1.73;;
45103;SDS011;30865;51.288;4.572;2023-02-01T10:50:17;7.93;;;1.83;;
45103;SDS011;30865;51.288;4.572;2023-02-01T10:52:57;8.63;;;1.73;;
45103;SDS011;30865;51.288;4.572;2023-02-01T10:55:40;12.70;;;1.90;;
45103;SDS011;30865;51.288;4.572;2023-02-01T11:01:21;11.05;;;2.58;;
45103;SDS011;30865;51.288;4.572;2023-02-01T11:03:54;4.03;;;1.30;;
45103;SDS011;30865;51.288;4.572;2023-02-01T11:09:00;7.78;;;1.95;;
45103;SDS011;30865;51.288;4.572;2023-02-01T11:15:01;10.20;;;1.88;;
45103;SDS011;30865;51.288;4.572;2023-02-01T11:17:44;7.50;;;2.53;;
45103;SDS011;30865;51.288;4.572;2023-02-01T11:20:19;8.57;;;1.70;;
45103;SDS011;30865;51.288;4.572;2023-02-01T11:23:01;18.42;;;3.05;;
45103;SDS011;30865;51.288;4.572;2023-02-01T11:25:28;7.78;;;1.95;;
45103;SDS011;30865;51.288;4.572;2023-02-01T11:27:54;10.55;;;2.22;;
45103;SDS011;30865;51.288;4.572;2023-02-01T11:30:31;4.22;;;1.90;;
45103;SDS011;30865;51.288;4.572;2023-02-01T11:32:59;7.30;;;1.73;;
45103;SDS011;30865;51.288;4.572;2023-02-01T11:35:26;12.40;;;2.10;;
45103;SDS011;30865;51.288;4.572;2023-02-01T11:37:57;8.27;;;2.28;;
45103;SDS011;30865;51.288;4.572;2023-02-01T11:43:12;13.18;;;2.03;;
45103;SDS011;30865;51.288;4.572;2023-02-01T11:45:41;6.10;;;2.08;;
45103;SDS011;30865;51.288;4.572;2023-02-01T11:48:28;11.73;;;2.80;;
45103;SDS011;30865;51.288;4.572;2023-02-01T11:51:02;15.05;;;2.25;;
45103;SDS011;30865;51.288;4.572;2023-02-01T11:56:14;18.15;;;2.42;;
45103;SDS011;30865;51.288;4.572;2023-02-01T12:15:37;9.50;;;1.52;;
45103;SDS011;30865;51.288;4.572;2023-02-01T12:18:43;13.75;;;2.60;;
45103;SDS011;30865;51.288;4.572;2023-02-01T12:32:20;10.48;;;1.98;;
45103;SDS011;30865;51.288;4.572;2023-02-01T12:35:01;18.95;;;2.33;;
45103;SDS011;30865;51.288;4.572;2023-02-01T12:46:04;9.93;;;2.63;;
45103;SDS011;30865;51.288;4.572;2023-02-01T12:48:38;10.38;;;1.95;;
45103;SDS011;30865;51.288;4.572;2023-02-01T12:51:12;8.73;;;2.35;;
45103;SDS011;30865;51.288;4.572;2023-02-01T12:53:50;15.00;;;2.25;;
45103;SDS011;30865;51.288;4.572;2023-02-01T12:56:22;9.25;;;1.88;;
45103;SDS011;30865;51.288;4.572;2023-02-01T12:58:53;13.65;;;2.67;;
45103;SDS011;30865;51.288;4.572;2023-02-01T13:04:52;7.80;;;1.67;;
45103;SDS011;30865;51.288;4.572;2023-02-01T13:07:31;8.05;;;1.92;;
45103;SDS011;30865;51.288;4.572;2023-02-01T13:10:17;6.55;;;1.48;;
45103;SDS011;30865;51.288;4.572;2023-02-01T13:13:07;15.18;;;2.67;;
45103;SDS011;30865;51.288;4.572;2023-02-01T13:15:58;11.27;;;2.08;;
45103;SDS011;30865;51.288;4.572;2023-02-01T13:18:37;13.35;;;2.40;;
45103;SDS011;30865;51.288;4.572;2023-02-01T13:21:10;7.47;;;1.58;;
45103;SDS011;30865;51.288;4.572;2023-02-01T13:23:41;14.27;;;2.30;;
45103;SDS011;30865;51.288;4.572;2023-02-01T13:28:40;11.75;;;3.97;;
45103;SDS011;30865;51.288;4.572;2023-02-01T13:39:28;8.38;;;2.00;;
45103;SDS011;30865;51.288;4.572;2023-02-01T13:42:18;10.02;;;2.30;;
45103;SDS011;30865;51.288;4.572;2023-02-01T13:44:56;7.47;;;1.83;;
45103;SDS011;30865;51.288;4.572;2023-02-01T13:47:34;7.18;;;1.38;;
45103;SDS011;30865;51.288;4.572;2023-02-01T13:50:12;13.55;;;1.90;;
45103;SDS011;30865;51.288;4.572;2023-02-01T13:52:53;9.30;;;1.50;;
45103;SDS011;30865;51.288;4.572;2023-02-01T13:57:44;7.40;;;1.50;;
45103;SDS011;30865;51.288;4.572;2023-02-01T14:03:20;6.85;;;1.75;;
45103;SDS011;30865;51.288;4.572;2023-02-01T14:08:23;11.38;;;1.98;;
45103;SDS011;30865;51.288;4.572;2023-02-01T14:11:03;6.47;;;1.75;;
45103;SDS011;30865;51.288;4.572;2023-02-01T14:16:16;6.40;;;1.65;;
45103;SDS011;30865;51.288;4.572;2023-02-01T14:24:01;8.77;;;1.58;;
45103;SDS011;30865;51.288;4.572;2023-02-01T14:26:48;5.95;;;1.58;;
45103;SDS011;30865;51.288;4.572;2023-02-01T14:32:03;9.75;;;1.83;;
45103;SDS011;30865;51.288;4.572;2023-02-01T14:39:53;4.70;;;1.40;;
45103;SDS011;30865;51.288;4.572;2023-02-01T14:42:25;9.48;;;2.20;;
45103;SDS011;30865;51.288;4.572;2023-02-01T14:44:55;11.77;;;3.05;;
45103;SDS011;30865;51.288;4.572;2023-02-01T14:51:03;11.45;;;1.85;;
45103;SDS011;30865;51.288;4.572;2023-02-01T14:53:33;10.93;;;2.33;;
45103;SDS011;30865;51.288;4.572;2023-02-01T14:56:04;11.25;;;2.10;;
45103;SDS011;30865;51.288;4.572;2023-02-01T15:11:53;10.88;;;1.55;;
45103;SDS011;30865;51.288;4.572;2023-02-01T15:14:20;8.45;;;2.53;;
45103;SDS011;30865;51.288;4.572;2023-02-01T15:16:46;8.80;;;2.20;;
45103;SDS011;30865;51.288;4.572;2023-02-01T15:19:18;11.00;;;1.83;;
45103;SDS011;30865;51.288;4.572;2023-02-01T15:21:47;6.45;;;1.60;;
45103;SDS011;30865;51.288;4.572;2023-02-01T15:24:18;8.13;;;1.65;;
45103;SDS011;30865;51.288;4.572;2023-02-01T15:26:44;6.07;;;1.98;;
45103;SDS011;30865;51.288;4.572;2023-02-01T15:29:12;6.53;;;2.30;;
45103;SDS011;30865;51.288;4.572;2023-02-01T15:31:40;6.75;;;1.70;;
45103;SDS011;30865;51.288;4.572;2023-02-01T15:34:08;15.38;;;2.95;;
45103;SDS011;30865;51.288;4.572;2023-02-01T15:36:34;6.68;;;1.58;;
45103;SDS011;30865;51.288;4.572;2023-02-01T15:39:21;8.10;;;1.85;;
45103;SDS011;30865;51.288;4.572;2023-02-01T15:42:21;8.52;;;2.13;;
45103;SDS011;30865;51.288;4.572;2023-02-01T15:44:43;9.57;;;2.03;;
45103;SDS011;30865;51.288;4.572;2023-02-01T15:49:45;6.03;;;1.67;;
45103;SDS011;30865;51.288;4.572;2023-02-01T15:55:02;8.88;;;1.88;;
45103;SDS011;30865;51.288;4.572;2023-02-01T15:57:34;11.20;;;1.50;;
45103;SDS011;30865;51.288;4.572;2023-02-01T16:00:04;8.90;;;2.00;;
45103;SDS011;30865;51.288;4.572;2023-02-01T16:02:50;6.72;;;1.83;;
45103;SDS011;30865;51.288;4.572;2023-02-01T16:05:27;7.82;;;1.70;;
45103;SDS011;30865;51.288;4.572;2023-02-01T16:08:00;11.27;;;1.70;;
45103;SDS011;30865;51.288;4.572;2023-02-01T16:10:41;5.63;;;1.75;;
45103;SDS011;30865;51.288;4.572;2023-02-01T16:13:11;8.20;;;1.42;;
45103;SDS011;30865;51.288;4.572;2023-02-01T16:15:37;7.50;;;1.67;;
45103;SDS011;30865;51.288;4.572;2023-02-01T16:18:03;8.30;;;1.48;;
45103;SDS011;30865;51.288;4.572;2023-02-01T16:20:28;9.80;;;2.30;;
45103;SDS011;30865;51.288;4.572;2023-02-01T16:22:54;6.18;;;1.55;;
45103;SDS011;30865;51.288;4.572;2023-02-01T16:25:21;12.48;;;2.42;;
45103;SDS011;30865;51.288;4.572;2023-02-01T16:27:46;4.70;;;1.52;;
45103;SDS011;30865;51.288;4.572;2023-02-01T16:30:12;8.00;;;1.88;;
45103;SDS011;30865;51.288;4.572;2023-02-01T16:32:37;7.45;;;1.67;;
45103;SDS011;30865;51.288;4.572;2023-02-01T16:35:22;11.70;;;2.38;;
45103;SDS011;30865;51.288;4.572;2023-02-01T16:37:50;9.32;;;1.33;;
45103;SDS011;30865;51.288;4.572;2023-02-01T16:40:16;12.80;;;2.03;;
45103;SDS011;30865;51.288;4.572;2023-02-01T16:42:43;5.28;;;1.50;;
45103;SDS011;30865;51.288;4.572;2023-02-01T16:45:12;10.18;;;1.52;;
45103;SDS011;30865;51.288;4.572;2023-02-01T16:47:38;6.05;;;1.48;;
45103;SDS011;30865;51.288;4.572;2023-02-01T16:50:15;7.93;;;1.70;;
45103;SDS011;30865;51.288;4.572;2023-02-01T16:52:41;8.23;;;1.73;;
45103;SDS011;30865;51.288;4.572;2023-02-01T16:55:09;11.45;;;2.35;;
45103;SDS011;30865;51.288;4.572;2023-02-01T16:57:38;6.22;;;1.17;;
45103;SDS011;30865;51.288;4.572;2023-02-01T17:00:04;6.07;;;2.08;;
45103;SDS011;30865;51.288;4.572;2023-02-01T17:02:30;10.52;;;1.90;;
45103;SDS011;30865;51.288;4.572;2023-02-01T17:04:56;7.93;;;1.65;;
45103;SDS011;30865;51.288;4.572;2023-02-01T17:07:21;6.90;;;1.75;;
45103;SDS011;30865;51.288;4.572;2023-02-01T17:09:47;7.13;;;1.90;;
45103;SDS011;30865;51.288;4.572;2023-02-01T17:14:48;5.72;;;1.50;;
45103;SDS011;30865;51.288;4.572;2023-02-01T17:17:15;7.28;;;1.42;;
45103;SDS011;30865;51.288;4.572;2023-02-01T17:19:47;5.55;;;1.67;;
45103;SDS011;30865;51.288;4.572;2023-02-01T17:22:17;3.95;;;1.40;;
45103;SDS011;30865;51.288;4.572;2023-02-01T17:24:43;6.70;;;2.00;;
45103;SDS011;30865;51.288;4.572;2023-02-01T17:27:09;7.38;;;2.45;;
45103;SDS011;30865;51.288;4.572;2023-02-01T17:29:34;8.32;;;1.83;;
45103;SDS011;30865;51.288;4.572;2023-02-01T17:32:00;9.15;;;2.13;;
45103;SDS011;30865;51.288;4.572;2023-02-01T17:34:26;8.73;;;1.83;;
45103;SDS011;30865;51.288;4.572;2023-02-01T17:36:52;8.65;;;2.00;;
45103;SDS011;30865;51.288;4.572;2023-02-01T17:39:18;5.00;;;1.80;;
45103;SDS011;30865;51.288;4.572;2023-02-01T17:42:03;6.28;;;1.52;;
45103;SDS011;30865;51.288;4.572;2023-02-01T17:44:29;9.95;;;2.03;;
45103;SDS011;30865;51.288;4.572;2023-02-01T17:46:55;6.78;;;2.45;;
45103;SDS011;30865;51.288;4.572;2023-02-01T17:49:23;8.48;;;1.80;;
45103;SDS011;30865;51.288;4.572;2023-02-01T17:51:48;5.05;;;1.60;;